Jemez Springs, Valles Caldera, New Mexico Weather observations

Data are for 10 minute period ending at time listed.
 Day   Time   Solar   Ave.   Ave.  Ave.  Vector  Max.   Baro.   Total    
  of    of     Rad.   Air    Rel.  Wind   Wind   Wind  Press.  Precip.   
Year   Day            Temp.  Hum.  Speed  Dir.   Gust                    
2014   (MST)  Kw/m2    F      %     mph   deg.    mph    mb.     in.     
-------------------------------------------------------------------------
 358   12:30   0.57   38.0    23    6.8   172    11.3   806.4    0.00 
 358   12:40   0.53   38.8    22    6.7   171    11.3   806.3    0.00 
 358   12:50   0.57   39.6    22    6.6   185    11.3   806.2    0.00 
 358   13:00   0.55   39.5    22    7.1   173    11.3   806.1    0.00 
 358   13:10   0.52   39.6    23    7.7   180    11.3   806.1    0.00 
 358   13:20   0.51   40.2    22    7.0   186    10.8   806.0    0.00 
 358   13:30   0.50   40.2    22    6.6   187    11.3   805.9    0.00 
 358   13:40   0.48   41.4    22    4.7   197     8.4   805.7    0.00 
 358   13:50   0.46   41.7    22    4.8   190     9.6   805.6    0.00 
 358   14:00   0.45   42.5    21    4.5   199     7.2   805.4    0.00 
 358   14:10   0.43   42.9    21    5.5   198    10.2   805.3    0.00 
 358   14:20   0.40   42.5    21    8.0   174    11.3   805.3    0.00 
 358   14:30   0.37   43.0    21    5.2   203     9.0   805.3    0.00 
 358   14:40   0.18   42.4    22    6.2   191     9.6   805.2    0.00 
 358   14:50   0.10   40.7    24    4.8   196     8.4   805.1    0.00 
 358   15:00   0.06   40.0    25    5.2   204     9.6   805.0    0.00 
 358   15:10   0.19   40.0    26    4.8   194     9.6   804.8    0.00 
 358   15:20   0.26   41.2    25    4.8   194     7.8   804.6    0.00 
 358   15:30   0.23   41.1    26    5.6   185     9.0   804.4    0.00 
 358   15:40   0.07   40.3    27    5.4   211     7.8   804.3    0.00 
 358   15:50   0.02   39.9    28    3.6   211     7.8   804.5    0.00 
 358   16:00   0.02   39.3    29    2.9   229     7.2   804.3    0.00 
 358   16:10   0.02   38.8    30    3.9   259     6.0   804.2    0.00 
 358   16:20   0.02   38.0    31    5.3   261     7.8   804.2    0.00 
 358   16:30   0.02   37.1    34    2.5   352     5.4   804.3    0.00 
 358   16:40   0.02   35.2    38    0.4    42     2.4   804.4    0.00 
 358   16:50   0.01   33.7    42    0.1    38     1.8   804.5    0.00 
 358   17:00   0.00   32.1    46    0.5    50     2.4   804.4    0.00 
 358   17:10   0.00   30.9    50    0.5   206     3.0   804.3    0.00 
 358   17:20   0.00   30.1    52    1.6   162     4.2   804.2    0.00 
 358   17:30   0.00   29.3    55    1.1    37     3.0   804.2    0.00 
 358   17:40   0.00   28.6    57    2.6   338     4.8   804.2    0.00 
 358   17:50   0.00   28.6    57    2.2    28     4.2   804.2    0.00 
 358   18:00   0.00   28.5    57    2.5    19     4.8   804.0    0.00 
 358   18:10   0.00   28.6    56    2.0    35     4.2   803.9    0.00 
 358   18:20   0.00   29.1    55    3.4    27     7.2   803.7    0.00 
 358   18:30   0.00   29.4    54    4.9   359     8.4   803.8    0.00 
 358   18:40   0.00   29.9    53    4.0    11     7.8   803.8    0.00 
 358   18:50   0.00   29.7    54    4.6    15     7.2   803.9    0.00 
 358   19:00   0.00   30.2    52    5.9    12    10.8   803.8    0.00 
 358   19:10   0.00   30.3    52    4.1   360     7.2   803.8    0.00 
 358   19:20   0.00   30.6    52    3.9     1     6.6   803.7    0.00 
 358   19:30   0.00   30.8    51    3.0    12     4.8   803.5    0.00 
 358   19:40   0.00   30.4    53    1.8    33     4.8   803.4    0.00 
 358   19:50   0.00   29.3    58    2.8   182     4.5   803.4    0.00 
 358   20:00   0.00   29.3    57    2.2   150     4.5   803.3    0.00 
 358   20:10   0.00   28.8    59    1.1   272     2.4   803.1    0.00 
 358   20:20   0.00   28.4    62    0.4    57     2.4   803.1    0.00 
 358   20:30   0.00   28.1    62    2.1    21     3.6   803.1    0.00 
 358   20:40   0.00   27.8    63    0.7    16     2.4   803.0    0.00 
 358   20:50   0.00   26.8    66    0.1   251     1.8   802.8    0.00 
 358   21:00   0.00   26.1    69    0.1    46     1.8   802.9    0.00 
 358   21:10   0.00   25.6    70    1.8    13     2.4   802.9    0.00 
 358   21:20   0.00   25.0    71    2.2    19     3.6   802.8    0.00 
 358   21:30   0.00   24.6    71    1.7    34     3.0   802.7    0.00 
 358   21:40   0.00   24.1    72    0.5    41     2.4   802.7    0.00 
 358   21:50   0.00   24.3    72    0.6    25     2.4   802.8    0.00 
 358   22:00   0.00   24.6    70    1.2    28     3.6   802.7    0.00 
 358   22:10   0.00   24.4    71    1.3    21     3.0   802.7    0.00 
 358   22:20   0.00   24.3    71    1.2    21     3.0   802.6    0.00 
 358   22:30   0.00   24.3    71    3.0    26     6.0   802.4    0.00 
 358   22:40   0.00   25.0    69    5.4    17     9.0   802.3    0.00 
 358   22:50   0.00   25.7    67    5.6    15     9.6   802.2    0.00 
 358   23:00   0.00   25.5    67    6.6    14    10.2   802.0    0.00 
 358   23:10   0.00   25.6    66    6.1    21     8.4   801.9    0.00 
 358   23:20   0.00   25.4    67    5.8    20     8.4   801.8    0.00 
 358   23:30   0.00   25.5    66    5.5    10     8.4   801.5    0.00 
 358   23:40   0.00   25.5    66    5.7    16     9.0   801.4    0.00 
 358   23:50   0.00   25.3    67    4.4    22     7.2   801.2    0.00 
 359    0:00   0.00   25.2    66    3.1    22     6.0   801.0    0.00 
 359    0:10   0.00   25.2    66    4.7     8     7.2   800.7    0.00 
 359    0:20   0.00   25.1    66    4.6    22     7.8   800.6    0.00 
 359    0:30   0.00   25.6    64    5.6    13     8.4   800.3    0.00 
 359    0:40   0.00   25.6    63    5.2    13     8.4   800.1    0.00 
 359    0:50   0.00   25.8    62    5.8    13    10.2   800.0    0.00 
 359    1:00   0.00   26.1    61    4.8   359     7.8   799.8    0.00 
 359    1:10   0.00   26.4    60    4.3     6     9.0   800.1    0.00 
 359    1:20   0.00   26.3    59    3.6    10     6.6   800.0    0.00 
 359    1:30   0.00   26.3    59    5.4    17     9.6   799.9    0.00 
 359    1:40   0.00   26.4    58    6.1     4    11.3   799.7    0.00 
 359    1:50   0.00   26.8    57    6.2    18    11.9   799.6    0.00 
 359    2:00   0.00   26.6    58    6.5    11    11.9   799.4    0.00 
 359    2:10   0.00   26.9    56    7.2    15    12.5   799.3    0.00 
 359    2:20   0.00   27.4    55    5.6    30    10.2   799.2    0.00 
 359    2:30   0.00   27.5    54    4.7     3     7.8   799.1    0.00 
 359    2:40   0.00   27.5    54    4.4     5     7.2   798.9    0.00 
 359    2:50   0.00   27.7    53    4.0   344     7.2   798.8    0.00 
 359    3:00   0.00   27.7    53    4.4    14     6.6   798.8    0.00 
 359    3:10   0.00   27.5    54    3.6   354     6.0   798.5    0.00 
 359    3:20   0.00   27.3    54    4.2     0     7.2   798.5    0.00 
 359    3:30   0.00   27.3    55    3.3    12     6.6   798.4    0.00 
 359    3:40   0.00   27.3    55    3.4     8     5.4   798.4    0.00 
 359    3:50   0.00   27.3    55    4.2     4     6.0   798.4    0.00 
 359    4:00   0.00   27.5    55    4.7    15     7.2   798.3    0.00 
 359    4:10   0.00   27.6    55    3.8    10     6.0   798.0    0.00 
 359    4:20   0.00   27.7    55    4.4    13     9.0   797.9    0.00 
 359    4:30   0.00   27.8    55    3.9    31     6.6   797.8    0.00 
 359    4:40   0.00   27.8    55    3.9     6     6.6   797.8    0.00 
 359    4:50   0.00   27.9    55    1.4   355     6.6   797.8    0.00 
 359    5:00   0.00   27.7    57    0.2    45     1.8   797.6    0.00 
 359    5:10   0.00   27.2    60    2.3   354     6.0   797.5    0.00 
 359    5:20   0.00   27.7    57    2.7    18     5.4   797.6    0.00 
 359    5:30   0.00   27.7    58    0.1   140     1.8   797.5    0.00 
 359    5:40   0.00   27.5    59    1.6   346     5.4   797.5    0.00 
 359    5:50   0.00   27.5    59    0.8    44     3.0   797.4    0.00 
 359    6:00   0.00   27.1    62    1.0   167     3.6   797.5    0.00 
 359    6:10   0.00   26.7    64    0.5   287     2.4   797.6    0.00 
 359    6:20   0.00   25.9    66    0.3    35     1.8   797.5    0.00 
 359    6:30   0.00   25.3    67    2.7     3     4.8   797.6    0.00 
 359    6:40   0.00   24.4    69    2.7    16     4.8   797.8    0.00 
 359    6:50   0.00   24.5    68    2.6    17     5.4   797.9    0.00 
 359    7:00   0.00   24.8    67    3.7    29     6.0   797.9    0.00 
 359    7:10   0.00   24.9    67    2.6    37     4.2   797.8    0.00 
 359    7:20   0.00   25.0    66    1.8    27     5.4   797.8    0.00 
 359    7:30   0.01   25.4    66    2.7    29     4.8   797.7    0.00 
 359    7:40   0.01   25.7    66    1.9    23     4.2   797.7    0.00 
 359    7:50   0.01   26.3    63    3.0     2     7.2   797.6    0.00 
 359    8:00   0.01   26.7    62    2.1    28     4.2   797.7    0.00 
 359    8:10   0.02   26.9    61    3.0    19     4.8   797.7    0.00 
 359    8:20   0.02   27.4    59    4.4    17     6.6   797.8    0.00 
 359    8:30   0.01   27.7    58    2.9    19     6.0   797.9    0.00 
 359    8:40   0.02   27.9    57    2.7    29     4.8   797.9    0.00 
 359    8:50   0.02   28.3    56    3.7    20     7.2   797.9    0.00 
 359    9:00   0.03   28.7    54    4.2    20     6.6   797.8    0.00 
 359    9:10   0.03   28.9    54    3.4    19     6.0   798.0    0.00 
 359    9:20   0.03   29.4    52    3.8    20     6.0   798.2    0.00 
 359    9:30   0.04   30.0    51    3.8    19     6.0   798.1    0.00 
 359    9:40   0.04   30.0    51    2.6    10     6.0   798.1    0.00 
 359    9:50   0.04   30.5    49    1.6    13     4.2   798.2    0.00 
 359   10:00   0.06   30.8    48    2.5   345     4.2   798.2    0.00 
 359   10:10   0.06   31.6    42    1.3    45     3.6   798.1    0.00 
 359   10:20   0.06   32.3    39    0.4   208     2.4   798.2    0.00 
 359   10:30   0.07   32.8    33    5.1   221    11.3   798.1    0.00 
 359   10:40   0.07   33.1    33    4.1   225     9.0   798.0    0.00 
 359   10:50   0.07   33.3    33    4.4   230     8.4   797.9    0.00 
 359   11:00   0.05   33.3    33    3.6   248     6.0   797.8    0.00 
 359   11:10   0.05   33.4    33    2.4   247     4.5   797.7    0.00 
 359   11:20   0.06   33.4    33    1.7   167     4.2   797.5    0.00 
 359   11:30   0.09   33.7    33    1.0    52     3.0   797.4    0.00 
 359   11:40   0.13   34.1    33    2.0    83     4.2   797.1    0.00 
 359   11:50   0.12   34.3    32    1.6    65     4.2   797.1    0.00 
 359   12:00   0.09   34.3    32    1.6    82     3.6   797.0    0.00 
 359   12:10   0.13   34.4    32    1.8   165     4.2   796.9    0.00 
 359   12:20   0.14   35.1    31    1.7   321     4.2   796.5    0.00 

Return to Jemez Springs, Valles Caldera graphs page.


Western Regional Climate Center,wrcc@dri.edu